Spruce Pine, NC

6:24 PM EDT on July 27, 2016 (GMT -0400)
Grassy Creek | | Change Station

Elev 2730 ft 35.87 °N, 82.06 °W | Updated 28 seconds ago

Clear
Clear
83.7 °F
Feels Like 88 °F
N
5.6
Wind Variable Wind from South
Gusts 7.4 mph

Today
High -- | Low -- °F
--% Chance of Precip.
Yesterday
High -- | Low -- °F
Precip. -- in
Pressure 30.01 in
Visibility 10.0 miles
Clouds Clear
Heat Index 88 °F
Dew Point 70 °F
Humidity 63%
Rainfall 0.00 in
Snow Depth Not available.
6:32 AM 8:36 PM
Last Quarter, 39% visible
METAR KMRN 272155Z AUTO 22007KT 10SM CLR 36/16 A3001 RMK AO2 T03550158
Pressure 30.01 in
Visibility 10.0 miles
Clouds Clear
Heat Index 88 °F
Dew Point 70 °F
Humidity 63%
Rainfall 0.00 in
Snow Depth Not available.
6:32 AM 8:36 PM
Last Quarter, 39% visible
METAR KMRN 272155Z AUTO 22007KT 10SM CLR 36/16 A3001 RMK AO2 T03550158

10-Day Weather Forecast

Almanac

Astronomy

Jul. 27, 2016 Rise Set
Actual Time
Civil Twilight
Nautical Twilight
Astronomical Twilight
Moon
Length of Visible Light
Length of Day
Tomorrow will be .
, % of the Moon is Illuminated

Today's Extremes

State Highs State Lows

Community

WunderPhotos

Upload Photos

1,927,946 photos uploaded!

WunderBlog® & News

Nearby

Air Quality

  Air Quality AQ Index Pollutant
Not available.

Snow Depth

Station Depth Elevation

Earthquake Activity

City Distance Mag. Time & Date
Minimum magnitude displayed is 2.5.

Coastal Water Temperatures

Place Temperature

Stations

Nearby Weather Stations

Station Location Temp. Windchill Dew Point Humidity Wind Precip. Elev Updated Type
                   

Watches & Warnings

There are currently no watches in effect.